Time;durP1;ratioP1;P1;durP2;ratioP2;P2;SDS_P1;SDS_P2;PMS_P1;PMS_P2;Temp;Humidity;BMP_temperature;BMP_pressure;BME280_temperature;BME280_humidity;BME280_pressure;Samples;Min_cycle;Max_cycle;Signal;HPM_P1;HPM_P2
2023/07/18 00:01:22;;;;;;;27.10;1.60;;;;;;;27.30;53.98;99965.31;7312653;19;130834;-41
2023/07/18 00:03:47;;;;;;;27.77;1.80;;;;;;;27.31;53.95;99966.94;7312599;19;128886;-41
2023/07/18 00:06:14;;;;;;;26.83;1.60;;;;;;;27.20;51.43;99969.91;7313002;19;129255;-42
2023/07/18 00:08:40;;;;;;;;;;;;;;;26.73;50.32;99962.66;7311858;19;130197;-39
2023/07/18 00:11:05;;;;;;;24.60;1.48;;;;;;;26.66;49.86;99966.94;7312445;19;130336;-42
2023/07/18 00:13:30;;;;;;;45.97;2.47;;;;;;;26.76;53.01;99957.06;7313423;19;130985;-38
2023/07/18 00:15:56;;;;;;;25.53;1.57;;;;;;;27.05;53.29;99955.72;7312981;19;129310;-37
2023/07/18 00:18:21;;;;;;;26.80;1.67;;;;;;;27.15;53.03;99957.22;7310417;19;129497;-35
2023/07/18 00:20:47;;;;;;;66.33;4.00;;;;;;;27.23;53.89;99964.28;7313354;19;130424;-32
2023/07/18 00:23:12;;;;;;;25.20;1.60;;;;;;;27.25;54.00;99964.94;7313807;19;129636;-34
2023/07/18 00:25:38;;;;;;;32.83;1.97;;;;;;;27.28;53.91;99964.66;7312655;19;130854;-34
2023/07/18 00:28:04;;;;;;;50.75;2.95;;;;;;;27.27;53.83;99955.84;7311308;19;130724;-33
2023/07/18 00:30:30;;;;;;;30.95;1.83;;;;;;;27.29;53.90;99964.47;7311557;19;130280;-30
2023/07/18 00:32:56;;;;;;;62.97;4.00;;;;;;;27.30;53.88;99968.78;7312058;19;131510;-34
2023/07/18 00:35:22;;;;;;;37.47;2.10;;;;;;;27.29;53.96;99967.13;7312735;19;128934;-30
2023/07/18 00:37:48;;;;;;;42.00;2.50;;;;;;;27.31;54.22;99974.88;7310724;19;128953;-36
2023/07/18 00:40:14;;;;;;;36.90;2.27;;;;;;;27.31;53.95;99974.88;7311544;19;129780;-33
2023/07/18 00:42:43;;;;;;;16.83;1.13;;;;;;;27.31;54.28;99966.94;7310642;19;129443;-31
2023/07/18 00:45:08;;;;;;;46.45;2.88;;;;;;;26.90;49.88;99966.97;7312023;19;129099;-33
2023/07/18 00:47:40;;;;;;;37.17;2.17;;;;;;;26.71;49.58;99969.91;7310923;19;129251;-35
2023/07/18 00:50:07;;;;;;;26.13;1.55;;;;;;;26.62;49.82;99970.88;7311809;19;130350;-37
2023/07/18 00:52:38;;;;;;;26.27;1.63;;;;;;;26.97;53.41;99974.22;7309438;19;129852;-36
2023/07/18 00:55:04;;;;;;;27.77;1.58;;;;;;;27.13;53.81;99968.91;7312611;19;129337;-37
2023/07/18 00:57:31;;;;;;;58.40;3.38;;;;;;;27.21;53.53;99976.81;7309069;19;129361;-34
2023/07/18 00:59:57;;;;;;;27.13;1.65;;;;;;;27.24;53.49;99973.88;7312669;19;131334;-35
2023/07/18 01:02:22;;;;;;;71.40;4.17;;;;;;;27.27;53.62;99974.34;7308357;19;130203;-33
2023/07/18 01:04:48;;;;;;;28.07;1.87;;;;;;;27.28;53.23;99969.94;7312224;19;129144;-37
2023/07/18 01:07:15;;;;;;;63.03;3.87;;;;;;;27.31;53.72;99972.22;7311352;19;130993;-35
2023/07/18 01:09:40;;;;;;;57.10;3.53;;;;;;;27.30;53.66;99973.22;7311016;19;131195;-38
2023/07/18 01:12:06;;;;;;;32.97;1.97;;;;;;;27.31;53.54;99969.59;7310329;19;128793;-35
2023/07/18 01:14:32;;;;;;;45.53;2.77;;;;;;;27.32;53.99;99968.63;7311257;19;129467;-42
2023/07/18 01:16:57;;;;;;;90.77;5.23;;;;;;;27.33;54.02;99970.25;7310524;19;130238;-42
2023/07/18 01:19:23;;;;;;;43.70;2.43;;;;;;;27.32;53.90;99969.41;7311886;19;129599;-34
2023/07/18 01:21:48;;;;;;;55.37;3.43;;;;;;;26.94;51.18;99944.50;7309351;19;130151;-32
2023/07/18 01:24:14;;;;;;;44.47;2.43;;;;;;;26.69;49.87;99965.81;7311005;19;129061;-35
2023/07/18 01:26:39;;;;;;;24.27;1.53;;;;;;;26.59;50.17;99965.09;7310907;19;129396;-35
2023/07/18 01:29:04;;;;;;;29.27;1.77;;;;;;;26.89;53.50;99962.66;7307904;19;130090;-31
2023/07/18 01:31:30;;;;;;;30.07;1.80;;;;;;;27.10;53.03;99969.25;7309999;19;129410;-35
2023/07/18 01:33:56;;;;;;;65.65;3.90;;;;;;;27.12;53.56;99946.16;7310307;19;129314;-36
2023/07/18 01:36:22;;;;;;;30.73;1.90;;;;;;;27.24;53.28;99965.97;7311023;19;129028;-35
2023/07/18 01:38:47;;;;;;;27.35;1.80;;;;;;;27.27;54.18;99965.63;7310513;19;129265;-35
2023/07/18 01:41:13;;;;;;;36.00;2.10;;;;;;;27.29;53.68;99966.31;7309644;19;129271;-36
2023/07/18 01:43:38;;;;;;;43.27;2.50;;;;;;;27.30;53.28;99968.78;7310863;19;129832;-36
2023/07/18 01:46:03;;;;;;;33.63;2.23;;;;;;;27.31;53.89;99962.50;7310349;19;130827;-39
2023/07/18 01:48:29;;;;;;;27.13;1.60;;;;;;;27.31;53.76;99966.94;7309382;19;130353;-33
2023/07/18 01:50:54;;;;;;;30.97;1.97;;;;;;;27.32;53.91;99963.34;7309780;19;130385;-33
2023/07/18 01:53:20;;;;;;;84.93;4.87;;;;;;;27.32;53.38;99965.97;7309030;19;130874;-34
2023/07/18 01:55:45;;;;;;;18.60;1.27;;;;;;;27.32;53.90;99968.63;7310381;19;129574;-34
2023/07/18 01:58:10;;;;;;;28.43;1.73;;;;;;;27.33;54.16;99967.59;7306668;19;129182;-36
2023/07/18 02:00:36;;;;;;;34.80;1.90;;;;;;;26.88;49.92;99974.22;7309374;19;130673;-34
2023/07/18 02:03:02;;;;;;;21.03;1.30;;;;;;;26.73;49.32;99982.94;7309839;19;128980;-36
2023/07/18 02:05:30;;;;;;;61.50;3.67;;;;;;;26.58;50.14;99966.06;7310604;19;129492;-36
2023/07/18 02:07:57;;;;;;;20.38;1.42;;;;;;;26.98;53.46;99978.50;7316213;19;130756;-37
2023/07/18 02:10:23;;;;;;;48.10;2.90;;;;;;;27.13;53.46;99979.47;7315795;19;130142;-35
2023/07/18 02:12:51;;;;;;;36.67;2.17;;;;;;;27.21;53.50;99968.91;7313796;19;130796;-34
2023/07/18 02:15:17;;;;;;;23.50;1.42;;;;;;;27.24;53.86;99972.03;7317400;19;130486;-31
2023/07/18 02:17:43;;;;;;;37.27;2.13;;;;;;;27.27;53.71;99982.25;7312790;19;130335;-32
2023/07/18 02:20:11;;;;;;;55.13;3.13;;;;;;;27.29;54.09;99979.50;7316214;19;130029;-33
2023/07/18 02:22:38;;;;;;;61.80;3.65;;;;;;;27.22;53.38;99971.38;7314160;19;129627;-38
2023/07/18 02:25:04;;;;;;;43.75;2.47;;;;;;;27.31;53.44;99988.06;7317335;19;129888;-36
2023/07/18 02:27:31;;;;;;;45.08;2.85;;;;;;;27.33;53.87;99986.94;7315083;19;132447;-39
2023/07/18 02:29:56;;;;;;;29.90;1.80;;;;;;;27.32;53.91;99992.38;7317012;19;129148;-34
2023/07/18 02:32:22;;;;;;;39.37;2.37;;;;;;;27.34;54.12;99987.72;7314860;19;128974;-36
2023/07/18 02:34:47;;;;;;;54.13;3.27;;;;;;;27.34;53.77;99982.44;7315570;19;129526;-32
2023/07/18 02:37:13;;;;;;;39.33;2.37;;;;;;;27.09;50.89;99984.25;7314957;19;129561;-33
2023/07/18 02:39:44;;;;;;;69.80;4.10;;;;;;;26.78;50.51;99986.75;7314865;19;131029;-33
2023/07/18 02:42:10;;;;;;;42.60;2.45;;;;;;;26.65;49.56;99975.84;7314477;19;129625;-34
2023/07/18 02:44:36;;;;;;;37.43;2.17;;;;;;;26.89;53.47;99980.31;7316226;19;129030;-37
2023/07/18 02:47:01;;;;;;;54.73;3.20;;;;;;;27.09;53.70;99980.81;7314929;19;130383;-31
2023/07/18 02:49:27;;;;;;;34.13;1.97;;;;;;;27.10;53.44;99964.81;7315388;19;128921;-37
2023/07/18 02:51:52;;;;;;;68.20;3.93;;;;;;;27.26;53.53;99990.34;7312611;19;131279;-36
2023/07/18 02:54:17;;;;;;;20.73;1.33;;;;;;;27.19;53.69;99973.56;7315942;19;130259;-38
2023/07/18 02:56:43;;;;;;;52.10;2.97;;;;;;;27.30;53.71;99983.78;7313512;19;130393;-33
2023/07/18 02:59:08;;;;;;;36.37;2.07;;;;;;;27.31;53.23;99983.63;7314359;19;129094;-36
2023/07/18 03:01:34;;;;;;;30.10;1.77;;;;;;;27.30;53.81;99978.50;7313868;19;129011;-39
2023/07/18 03:04:00;;;;;;;39.70;2.40;;;;;;;27.31;53.41;99977.50;7313910;19;130572;-39
2023/07/18 03:06:26;;;;;;;26.90;1.63;;;;;;;27.33;53.87;99983.44;7314455;19;131173;-37
2023/07/18 03:08:51;;;;;;;70.37;4.17;;;;;;;27.34;53.56;99993.00;7312390;19;128915;-35
2023/07/18 03:11:18;;;;;;;29.33;1.63;;;;;;;27.34;54.28;99987.72;7314431;19;129232;-37
2023/07/18 03:13:43;;;;;;;;;;;;;;;27.40;54.18;99985.28;7313800;19;130140;-35
2023/07/18 03:16:08;;;;;;;26.93;1.70;;;;;;;26.85;49.37;99986.91;7312571;19;129254;-39
2023/07/18 03:18:33;;;;;;;49.07;2.60;;;;;;;26.65;49.53;99990.81;7309116;19;128874;-36
2023/07/18 03:20:59;;;;;;;71.10;4.03;;;;;;;26.75;52.96;99987.06;7312688;19;129293;-36
2023/07/18 03:23:27;;;;;;;26.27;1.53;;;;;;;27.06;53.69;99989.03;7314573;19;130193;-38
2023/07/18 03:25:52;;;;;;;37.47;2.10;;;;;;;27.17;53.51;99986.09;7313527;19;129257;-39
2023/07/18 03:28:19;;;;;;;40.70;2.23;;;;;;;27.24;53.97;99987.06;7313567;19;129517;-37
2023/07/18 03:30:45;;;;;;;35.95;2.00;;;;;;;27.25;53.13;99980.78;7313653;19;129251;-37
2023/07/18 03:33:11;;;;;;;60.93;3.77;;;;;;;27.29;53.75;99982.16;7312539;19;129075;-38
2023/07/18 03:35:36;;;;;;;29.15;1.75;;;;;;;27.29;53.75;99985.59;7314072;19;130207;-39
2023/07/18 03:38:02;;;;;;;66.97;3.83;;;;;;;27.30;53.84;99983.78;7310798;19;128790;-38
2023/07/18 03:40:28;;;;;;;23.83;1.52;;;;;;;27.32;53.38;99989.72;7313957;19;128959;-38
2023/07/18 03:42:53;;;;;;;28.00;1.73;;;;;;;27.33;53.45;99980.81;7313908;19;129469;-35
2023/07/18 03:45:19;;;;;;;59.00;3.70;;;;;;;27.33;53.94;99980.81;7312562;19;129583;-35
2023/07/18 03:47:44;;;;;;;57.23;3.17;;;;;;;27.33;53.73;99976.38;7313877;19;129392;-38
2023/07/18 03:50:12;;;;;;;43.60;2.67;;;;;;;27.31;54.30;99977.50;7314179;19;130393;-38
2023/07/18 03:52:37;;;;;;;24.83;1.38;;;;;;;26.87;50.52;99992.84;7311338;19;129096;-36
2023/07/18 03:55:04;;;;;;;77.17;4.53;;;;;;;26.72;49.62;99984.78;7312918;19;130918;-37
2023/07/18 03:57:30;;;;;;;;;;;;;;;26.79;52.61;99983.09;7313241;19;129331;-35
2023/07/18 03:59:55;;;;;;;26.95;1.60;;;;;;;27.03;52.92;99981.47;7314314;19;129536;-38
2023/07/18 04:02:21;;;;;;;71.33;4.27;;;;;;;27.16;53.40;99990.53;7311229;19;129493;-37
2023/07/18 04:04:46;;;;;;;28.10;1.70;;;;;;;27.23;53.52;99990.69;7314442;19;129913;-37
2023/07/18 04:07:11;;;;;;;52.20;3.17;;;;;;;27.19;53.60;99968.28;7315110;19;129118;-35
2023/07/18 04:09:37;;;;;;;24.50;1.50;;;;;;;27.29;53.94;99990.06;7313909;19;129241;-36
2023/07/18 04:12:02;;;;;;;27.13;1.57;;;;;;;27.29;53.78;99988.25;7311809;19;129358;-38
2023/07/18 04:14:28;;;;;;;69.90;4.07;;;;;;;27.31;53.80;99990.72;7313532;19;130981;-39
2023/07/18 04:16:53;;;;;;;32.63;1.87;;;;;;;27.31;53.77;99993.34;7314763;19;129221;-39
2023/07/18 04:19:19;;;;;;;24.17;1.50;;;;;;;27.32;53.71;100000.28;7313634;19;129875;-38
2023/07/18 04:21:45;;;;;;;42.43;2.47;;;;;;;27.32;53.38;99997.66;7311901;19;129407;-39
2023/07/18 04:24:10;;;;;;;46.37;2.50;;;;;;;27.32;53.67;100000.28;7313302;19;131333;-38
2023/07/18 04:26:36;;;;;;;63.90;3.77;;;;;;;27.33;54.41;100000.13;7311802;19;130327;-40
2023/07/18 04:29:04;;;;;;;18.03;1.07;;;;;;;27.22;51.08;100004.91;7310652;19;129145;-39
2023/07/18 04:31:29;;;;;;;45.75;2.78;;;;;;;26.79;50.20;100001.56;7310426;19;130574;-37
2023/07/18 04:33:54;;;;;;;37.83;2.13;;;;;;;26.69;49.57;99998.25;7312455;19;129489;-37
2023/07/18 04:36:20;;;;;;;24.27;1.47;;;;;;;26.82;53.21;99997.78;7313635;19;129183;-39
2023/07/18 04:38:45;;;;;;;50.67;3.20;;;;;;;27.06;53.62;99994.31;7308561;19;128902;-37
2023/07/18 04:41:10;;;;;;;23.93;1.50;;;;;;;27.17;53.33;99992.19;7310979;19;129633;-39
2023/07/18 04:43:36;;;;;;;62.60;3.57;;;;;;;27.23;53.65;99998.59;7311527;19;130442;-39
2023/07/18 04:46:04;;;;;;;27.57;1.60;;;;;;;27.27;53.39;100002.56;7312409;19;129411;-36
2023/07/18 04:48:29;;;;;;;24.52;1.45;;;;;;;27.28;53.69;100001.59;7310252;19;129075;-39
2023/07/18 04:50:59;;;;;;;42.60;2.53;;;;;;;27.30;54.36;99991.72;7309743;19;129016;-36
2023/07/18 04:53:29;;;;;;;41.65;2.30;;;;;;;27.30;53.98;99992.53;7312381;19;129105;-37
2023/07/18 04:55:58;;;;;;;71.75;4.25;;;;;;;27.29;53.59;99990.88;7311771;19;130554;-38
2023/07/18 04:58:27;;;;;;;27.35;1.65;;;;;;;27.29;54.00;99990.88;7308767;19;130835;-36
2023/07/18 05:00:56;;;;;;;56.28;3.45;;;;;;;27.31;53.76;99988.91;7310754;19;129495;-37
2023/07/18 05:03:22;;;;;;;36.33;2.03;;;;;;;27.22;53.99;99970.56;7310882;19;131264;-35
2023/07/18 05:05:47;;;;;;;47.77;2.87;;;;;;;27.31;53.66;99998.63;7310840;19;128956;-40
2023/07/18 05:08:12;;;;;;;29.17;1.60;;;;;;;26.80;49.71;100000.59;7310414;19;129427;-40
2023/07/18 05:10:39;;;;;;;28.57;1.57;;;;;;;26.76;50.40;99999.25;7309964;19;129210;-35
2023/07/18 05:13:04;;;;;;;41.05;2.53;;;;;;;26.77;53.26;100000.94;7309291;19;130411;-39
2023/07/18 05:15:30;;;;;;;25.27;1.50;;;;;;;27.04;52.98;100001.59;7311598;19;128819;-37
2023/07/18 05:17:55;;;;;;;57.87;3.47;;;;;;;27.17;53.27;100002.75;7307799;19;128905;-35
2023/07/18 05:20:20;;;;;;;14.53;1.00;;;;;;;27.23;53.41;100002.09;7310751;19;129132;-39
2023/07/18 05:22:46;;;;;;;50.17;2.70;;;;;;;27.16;53.24;99974.69;7308065;19;129698;-39
2023/07/18 05:25:13;;;;;;;35.47;2.00;;;;;;;27.28;53.28;99996.31;7310531;19;129710;-38
2023/07/18 05:27:40;;;;;;;47.63;2.78;;;;;;;27.28;53.74;99989.25;7309569;19;129024;-39
2023/07/18 05:30:11;;;;;;;53.63;3.25;;;;;;;27.30;53.98;99994.34;7310201;19;130440;-38
2023/07/18 05:32:36;;;;;;;58.60;3.17;;;;;;;27.30;53.89;99997.81;7309070;19;129245;-39
2023/07/18 05:35:02;;;;;;;59.60;3.73;;;;;;;27.29;53.88;99985.59;7310656;19;128902;-39
2023/07/18 05:37:29;;;;;;;28.07;1.57;;;;;;;27.32;53.75;99989.72;7310525;19;129504;-40
2023/07/18 05:39:54;;;;;;;;;;;;;;;27.42;53.63;99990.38;7310551;19;130173;-38
2023/07/18 05:42:19;;;;;;;67.63;3.90;;;;;;;27.33;53.86;99984.28;7314831;19;131938;-42
2023/07/18 05:44:45;;;;;;;26.77;1.53;;;;;;;26.87;49.91;99995.50;7318838;19;130143;-42
2023/07/18 05:47:10;;;;;;;97.03;5.80;;;;;;;26.71;49.87;99991.00;7316720;19;129192;-42
2023/07/18 05:49:35;;;;;;;27.17;1.60;;;;;;;26.66;50.77;99993.31;7317852;19;130120;-39
2023/07/18 05:52:01;;;;;;;56.70;3.23;;;;;;;27.00;53.34;99995.81;7315694;19;129253;-40
2023/07/18 05:54:28;;;;;;;31.00;1.73;;;;;;;27.13;53.35;99990.88;7316730;19;129692;-42
2023/07/18 05:56:54;;;;;;;34.58;2.03;;;;;;;27.19;53.69;99984.09;7317325;19;130453;-42
2023/07/18 05:59:19;;;;;;;44.27;2.63;;;;;;;27.24;53.90;99981.78;7312477;19;129479;-39
2023/07/18 06:01:45;;;;;;;32.33;1.90;;;;;;;27.27;53.40;99982.25;7315310;19;131388;-42
2023/07/18 06:04:10;;;;;;;55.60;3.37;;;;;;;27.28;53.66;99988.41;7316293;19;130248;-43
2023/07/18 06:06:37;;;;;;;11.63;0.90;;;;;;;27.29;53.37;99987.44;7316548;19;129814;-41
2023/07/18 06:09:03;;;;;;;62.72;3.78;;;;;;;27.29;53.30;99988.25;7314298;19;129082;-38
2023/07/18 06:11:28;;;;;;;41.70;2.40;;;;;;;27.31;53.72;99988.06;7315647;19;129585;-42
2023/07/18 06:13:53;;;;;;;24.43;1.40;;;;;;;27.30;54.01;99981.16;7313423;19;129379;-42
2023/07/18 06:16:18;;;;;;;65.57;3.93;;;;;;;27.31;54.33;99980.97;7314453;19;131389;-41
2023/07/18 06:18:44;;;;;;;39.37;2.23;;;;;;;27.29;53.43;99975.03;7312376;19;129673;-39
2023/07/18 06:21:12;;;;;;;58.38;3.45;;;;;;;27.21;51.07;99976.81;7311279;19;130925;-40
2023/07/18 06:23:37;;;;;;;44.67;2.83;;;;;;;26.83;49.50;99981.78;7315426;19;130169;-42
2023/07/18 06:26:04;;;;;;;29.47;1.67;;;;;;;26.68;49.85;99980.78;7317211;19;130733;-42
2023/07/18 06:28:30;;;;;;;76.22;4.35;;;;;;;26.79;53.25;99980.47;7314486;19;130180;-40
2023/07/18 06:30:56;;;;;;;32.67;1.83;;;;;;;27.05;53.58;99984.75;7315971;19;130491;-41
2023/07/18 06:33:22;;;;;;;46.85;2.47;;;;;;;27.06;53.17;99965.28;7315744;19;129029;-36
2023/07/18 06:35:55;;;;;;;22.60;1.30;;;;;;;27.24;53.35;99987.06;7316058;19;129502;-41
2023/07/18 06:38:21;;;;;;;51.05;2.80;;;;;;;27.24;53.70;99981.78;7313054;19;129475;-39
2023/07/18 06:40:52;;;;;;;41.37;2.33;;;;;;;27.27;54.22;99981.47;7314775;19;129200;-37
2023/07/18 06:43:17;;;;;;;27.98;1.55;;;;;;;27.25;53.71;99983.44;7317242;19;129366;-41
2023/07/18 06:45:44;;;;;;;38.13;2.27;;;;;;;27.30;53.70;99981.16;7314946;19;129497;-41
2023/07/18 06:48:10;;;;;;;29.13;1.60;;;;;;;27.29;53.37;99992.72;7314613;19;130995;-39
2023/07/18 06:50:36;;;;;;;74.30;4.17;;;;;;;27.30;54.21;99987.25;7314942;19;130721;-41
2023/07/18 06:53:02;;;;;;;27.60;1.63;;;;;;;27.30;53.83;99992.53;7315211;19;130483;-39
2023/07/18 06:55:27;;;;;;;23.97;1.47;;;;;;;27.26;54.02;99987.72;7315385;19;131094;-39
2023/07/18 06:57:52;;;;;;;35.43;2.03;;;;;;;27.30;53.62;99991.72;7312568;19;131233;-43
2023/07/18 07:00:19;;;;;;;37.20;2.07;;;;;;;26.83;50.09;99997.63;7316465;19;130970;-39
2023/07/18 07:02:45;;;;;;;54.67;3.33;;;;;;;26.64;50.18;99989.16;7313224;19;130618;-40
2023/07/18 07:05:10;;;;;;;32.87;1.83;;;;;;;26.75;53.16;99996.78;7314532;19;129116;-37
2023/07/18 07:07:36;;;;;;;36.47;2.20;;;;;;;27.04;53.52;100001.59;7313742;19;130306;-39
2023/07/18 07:10:01;;;;;;;28.83;1.60;;;;;;;27.14;53.33;99994.34;7314424;19;130404;-41
2023/07/18 07:12:26;;;;;;;29.50;1.70;;;;;;;27.20;53.60;99991.03;7312981;19;129048;-41
2023/07/18 07:14:52;;;;;;;61.43;3.63;;;;;;;27.21;53.51;99988.22;7314020;19;128958;-40
2023/07/18 07:17:17;;;;;;;44.33;2.53;;;;;;;27.25;54.01;99988.72;7312526;19;130091;-36
2023/07/18 07:19:44;;;;;;;50.27;3.03;;;;;;;27.25;53.80;99983.44;7313828;19;130450;-38
2023/07/18 07:22:11;;;;;;;33.28;1.98;;;;;;;27.27;53.92;99982.25;7315014;19;129088;-38
2023/07/18 07:24:37;;;;;;;26.83;1.58;;;;;;;27.29;53.84;99979.50;7314916;19;130828;-35
2023/07/18 07:27:03;;;;;;;75.73;4.37;;;;;;;27.27;53.54;99978.81;7313385;19;130300;-36
2023/07/18 07:29:28;;;;;;;20.93;1.33;;;;;;;27.30;53.73;99981.16;7315372;19;130753;-36
2023/07/18 07:31:53;;;;;;;45.03;2.77;;;;;;;27.29;54.14;99985.59;7312052;19;131092;-35
2023/07/18 07:34:19;;;;;;;25.90;1.57;;;;;;;27.29;53.65;99990.88;7314459;19;129016;-31
2023/07/18 07:36:44;;;;;;;55.90;3.17;;;;;;;26.98;50.98;99975.84;7313807;19;129965;-39
2023/07/18 07:39:10;;;;;;;48.30;2.60;;;;;;;26.65;50.13;99962.66;7311807;19;129649;-37
2023/07/18 07:41:35;;;;;;;15.87;1.03;;;;;;;26.65;49.91;99974.97;7313366;19;129671;-36
2023/07/18 07:44:01;;;;;;;71.30;4.13;;;;;;;26.80;53.29;99974.22;7313425;19;129752;-34
2023/07/18 07:46:26;;;;;;;39.63;2.20;;;;;;;27.08;53.14;99977.34;7314329;19;128901;-38
2023/07/18 07:48:52;;;;;;;46.53;2.77;;;;;;;27.08;53.70;99960.66;7312847;19;129319;-40
2023/07/18 07:51:17;;;;;;;28.20;1.63;;;;;;;27.21;53.41;99971.53;7313434;19;129681;-33
2023/07/18 07:53:43;;;;;;;34.13;1.80;;;;;;;27.14;54.16;99954.75;7314329;19;129155;-36
2023/07/18 07:56:09;;;;;;;42.50;2.43;;;;;;;27.27;53.94;99976.19;7313751;19;130416;-34
2023/07/18 07:58:36;;;;;;;33.70;1.98;;;;;;;27.26;53.88;99963.94;7312285;19;129374;-38
2023/07/18 08:01:02;;;;;;;56.33;3.42;;;;;;;27.27;53.35;99970.91;7312309;19;129245;-32
2023/07/18 08:03:27;;;;;;;37.70;2.07;;;;;;;27.28;53.71;99957.56;7312712;19;129670;-34
2023/07/18 08:05:53;;;;;;;44.10;2.47;;;;;;;27.29;53.40;99968.94;7314018;19;129188;-41
2023/07/18 08:08:18;;;;;;;9.73;0.73;;;;;;;27.29;53.99;99958.38;7312306;19;130059;-33
2023/07/18 08:10:43;;;;;;;41.30;2.37;;;;;;;27.29;53.85;99959.19;7313104;19;129537;-32
2023/07/18 08:13:10;;;;;;;87.07;4.83;;;;;;;27.17;51.43;99957.03;7313117;19;131088;-41
2023/07/18 08:15:35;;;;;;;28.92;1.60;;;;;;;26.81;50.13;99954.75;7313910;19;129499;-38
2023/07/18 08:18:01;;;;;;;46.37;2.80;;;;;;;26.69;50.07;99945.50;7311548;19;130246;-40
2023/07/18 08:20:27;;;;;;;27.57;1.53;;;;;;;26.84;52.98;99954.41;7313213;19;130157;-34
2023/07/18 08:22:54;;;;;;;47.88;2.55;;;;;;;26.98;53.26;99930.97;7311328;19;131442;-38
2023/07/18 08:25:19;;;;;;;;;;;;;;;27.22;53.03;99936.25;7312265;19;129703;-39
2023/07/18 08:27:45;;;;;;;33.08;1.85;;;;;;;27.20;53.73;99943.50;7311748;19;129265;-32
2023/07/18 08:30:11;;;;;;;55.40;3.47;;;;;;;27.22;53.96;99944.97;7312055;19;130117;-35
2023/07/18 08:32:37;;;;;;;46.47;2.55;;;;;;;27.23;53.45;99937.88;7310720;19;129594;-35
2023/07/18 08:35:04;;;;;;;37.72;2.05;;;;;;;27.25;54.01;99935.91;7312531;19;130273;-39
2023/07/18 08:37:29;;;;;;;27.13;1.65;;;;;;;27.26;53.34;99932.25;7312162;19;129208;-31
2023/07/18 08:39:54;;;;;;;50.37;2.67;;;;;;;27.26;53.94;99935.75;7314042;19;128883;-36
2023/07/18 08:42:25;;;;;;;88.27;4.87;;;;;;;27.27;53.95;99924.19;7309273;19;128925;-38
2023/07/18 08:44:52;;;;;;;28.48;1.65;;;;;;;27.27;54.19;99928.66;7311780;19;130030;-37
2023/07/18 08:47:18;;;;;;;66.25;4.10;;;;;;;27.27;53.88;99920.72;7311701;19;129547;-36
2023/07/18 08:49:43;;;;;;;26.27;1.53;;;;;;;27.27;54.38;99912.81;7312632;19;130899;-30
2023/07/18 08:52:09;;;;;;;40.03;2.23;;;;;;;26.62;49.52;99890.91;7310513;19;129447;-46
2023/07/18 08:54:34;;;;;;;38.93;2.20;;;;;;;26.58;49.52;99911.50;7312365;19;129985;-40
2023/07/18 08:57:00;;;;;;;43.87;2.67;;;;;;;26.67;52.95;99909.75;7311154;19;130146;-36
2023/07/18 08:59:26;;;;;;;62.92;3.70;;;;;;;26.97;53.17;99909.06;7309634;19;129281;-31
2023/07/18 09:01:52;;;;;;;45.90;2.50;;;;;;;27.10;53.93;99900.63;7311989;19;129518;-36
2023/07/18 09:04:20;;;;;;;52.63;3.22;;;;;;;27.16;53.30;99894.66;7311864;19;129823;-41
2023/07/18 09:06:55;;;;;;;28.92;1.73;;;;;;;27.19;54.04;99900.44;7311616;19;129698;-35
2023/07/18 09:09:23;;;;;;;44.75;2.70;;;;;;;27.22;53.56;99901.94;7310024;19;128957;-36
2023/07/18 09:12:03;;;;;;;26.45;1.55;;;;;;;27.26;54.42;99890.84;7309412;19;129082;-33
2023/07/18 09:14:31;;;;;;;64.90;3.60;;;;;;;27.23;54.02;99891.19;7310716;19;131191;-36
2023/07/18 09:16:59;;;;;;;26.00;1.58;;;;;;;27.24;54.15;99892.84;7311870;19;130323;-34
2023/07/18 09:19:38;;;;;;;42.17;2.45;;;;;;;27.27;54.27;99886.41;7307479;19;129443;-40
2023/07/18 09:22:14;;;;;;;28.90;1.60;;;;;;;27.27;54.55;99881.13;7310251;19;129433;-34
2023/07/18 09:24:40;;;;;;;50.58;3.22;;;;;;;27.25;53.94;99880.47;7309282;19;128987;-37
2023/07/18 09:27:07;;;;;;;;;;;;;;;27.35;53.95;99871.41;7311068;19;130413;-34
2023/07/18 09:29:32;;;;;;;48.20;2.70;;;;;;;26.79;50.12;99855.66;7310961;19;129350;-33
2023/07/18 09:31:58;;;;;;;28.13;1.67;;;;;;;26.67;50.21;99871.00;7309547;19;129035;-32
2023/07/18 09:34:26;;;;;;;24.77;1.50;;;;;;;26.62;49.93;99872.44;7310528;19;129932;-40
2023/07/18 09:36:59;;;;;;;48.80;2.60;;;;;;;26.93;54.04;99869.00;7310370;19;129714;-40
2023/07/18 09:39:26;;;;;;;36.35;2.00;;;;;;;27.06;53.57;99871.09;7309380;19;129201;-32
2023/07/18 09:41:53;;;;;;;18.13;1.23;;;;;;;27.13;53.90;99873.88;7308272;19;131510;-33
2023/07/18 09:44:19;;;;;;;28.85;1.70;;;;;;;27.18;53.71;99868.94;7310240;19;129199;-32
2023/07/18 09:46:44;;;;;;;79.80;4.73;;;;;;;27.20;53.88;99859.03;7309261;19;130305;-30
2023/07/18 09:49:10;;;;;;;33.30;1.80;;;;;;;27.19;54.18;99852.91;7310381;19;129092;-35
2023/07/18 09:51:38;;;;;;;43.90;2.60;;;;;;;27.23;53.63;99848.13;7308137;19;129251;-31
2023/07/18 09:54:05;;;;;;;25.75;1.50;;;;;;;27.23;54.05;99841.03;7310241;19;129494;-30
2023/07/18 09:56:33;;;;;;;44.35;2.40;;;;;;;27.23;53.72;99842.84;7310279;19;129599;-36
2023/07/18 09:59:05;;;;;;;43.55;2.50;;;;;;;27.24;54.32;99833.94;7308252;19;128835;-35
2023/07/18 10:01:32;;;;;;;26.27;1.65;;;;;;;27.23;54.18;99833.13;7308697;19;128853;-39
2023/07/18 10:03:58;;;;;;;27.08;1.85;;;;;;;26.86;49.79;99833.69;7308543;19;131772;-33
2023/07/18 10:06:25;;;;;;;29.33;1.65;;;;;;;26.70;49.56;99831.09;7309646;19;129236;-35
2023/07/18 10:08:53;;;;;;;47.22;2.85;;;;;;;26.55;49.90;99830.09;7308018;19;129377;-37
2023/07/18 10:11:18;;;;;;;37.08;2.08;;;;;;;26.76;53.32;99814.59;7308762;19;128940;-40
2023/07/18 10:13:55;;;;;;;4.03;0.40;;;;;;;27.08;53.30;99823.41;7309032;19;130042;-36
2023/07/18 10:16:21;;;;;;;;;;;;;;;27.13;53.40;99807.91;7310645;19;129832;-33
2023/07/18 10:18:51;;;;;;;59.00;3.50;;;;;;;27.19;53.33;99823.06;7306790;19;129531;-37
2023/07/18 10:21:35;;;;;;;61.63;3.38;;;;;;;27.22;54.20;99825.38;7308973;19;130915;-40
2023/07/18 10:24:28;;;;;;;47.58;2.90;;;;;;;27.25;53.92;99809.19;7309327;19;130310;-36
2023/07/18 10:27:07;;;;;;;34.97;1.95;;;;;;;27.24;53.98;99818.09;7312133;19;130476;-39
2023/07/18 10:29:37;;;;;;;28.38;1.75;;;;;;;27.23;53.74;99811.16;7316880;19;129194;-39
2023/07/18 10:32:04;;;;;;;49.22;3.05;;;;;;;27.22;54.18;99802.41;7313604;19;128833;-34
2023/07/18 10:34:37;;;;;;;25.15;1.48;;;;;;;27.22;54.24;99799.78;7314578;19;130949;-37
2023/07/18 10:37:07;;;;;;;57.78;3.53;;;;;;;27.14;54.24;99788.44;7315047;19;130091;-35
2023/07/18 10:39:38;;;;;;;32.88;1.95;;;;;;;27.16;53.92;99778.50;7315267;19;129067;-34
2023/07/18 10:42:20;;;;;;;33.70;1.85;;;;;;;26.88;51.61;99771.03;7315133;19;129940;-38
2023/07/18 10:44:47;;;;;;;22.42;1.35;;;;;;;26.67;49.96;99778.69;7316457;19;130129;-38
2023/07/18 10:47:17;;;;;;;82.10;5.15;;;;;;;26.55;49.17;99777.34;7312382;19;130446;-34
2023/07/18 10:49:44;;;;;;;24.77;1.40;;;;;;;26.84;54.15;99775.00;7315634;19;131537;-30
2023/07/18 10:52:10;;;;;;;37.75;2.05;;;;;;;26.64;51.00;99760.50;7314086;19;129891;-37
2023/07/18 10:54:36;;;;;;;44.73;2.60;;;;;;;26.51;49.90;99754.94;7314739;19;131417;-42
2023/07/18 10:57:03;;;;;;;45.37;2.90;;;;;;;26.47;49.91;99760.72;7314846;19;129368;-33
2023/07/18 10:59:28;;;;;;;36.42;2.20;;;;;;;26.56;52.73;99749.16;7313003;19;128935;-35
2023/07/18 11:01:54;;;;;;;80.17;4.17;;;;;;;26.87;53.65;99731.63;7314054;19;129279;-40
2023/07/18 11:04:23;;;;;;;4.03;0.53;;;;;;;27.02;53.68;99737.84;7316648;19;128981;-30
2023/07/18 11:06:59;;;;;;;68.82;3.83;;;;;;;27.11;53.30;99733.34;7313638;19;130303;-35
2023/07/18 11:09:24;;;;;;;15.68;1.08;;;;;;;27.13;53.51;99726.06;7314660;19;129359;-32
2023/07/18 11:11:50;;;;;;;69.57;3.80;;;;;;;27.16;53.71;99720.44;7312687;19;130267;-37
2023/07/18 11:14:16;;;;;;;9.77;0.70;;;;;;;27.17;54.08;99720.28;7316120;19;130996;-38
2023/07/18 11:16:42;;;;;;;25.90;1.50;;;;;;;27.18;53.77;99710.53;7314278;19;129483;-36